createdAt,value
2023-11-07T00:04:47.574Z,71.78
2023-11-07T00:09:50.647Z,71.55
2023-11-07T00:14:52.701Z,71.63
2023-11-07T00:19:56.960Z,71.56
2023-11-07T00:24:58.637Z,71.48
2023-11-07T00:30:01.174Z,71.50
2023-11-07T00:35:03.670Z,71.67
2023-11-07T00:40:07.841Z,71.63
2023-11-07T00:45:10.010Z,71.71
2023-11-07T00:50:11.994Z,71.62
2023-11-07T00:55:14.317Z,71.73
2023-11-07T01:00:16.755Z,71.61
2023-11-07T01:05:19.560Z,71.62
2023-11-07T01:10:21.354Z,71.71
2023-11-07T01:15:23.238Z,71.84
2023-11-07T01:20:25.185Z,71.52
2023-11-07T01:25:28.579Z,71.72
2023-11-07T01:30:30.477Z,71.72
2023-11-07T01:35:32.324Z,71.74
2023-11-07T01:40:34.837Z,71.98
2023-11-07T01:45:36.540Z,71.99
2023-11-07T01:50:38.408Z,71.98
2023-11-07T01:55:41.731Z,71.94
2023-11-07T02:00:45.157Z,72.17
2023-11-07T02:05:46.848Z,72.18
2023-11-07T02:10:48.561Z,72.27
2023-11-07T02:15:50.240Z,72.36
2023-11-07T02:20:53.300Z,72.19
2023-11-07T02:25:55.187Z,72.19
2023-11-07T02:30:58.160Z,72.48
2023-11-07T02:36:01.299Z,72.66
2023-11-07T02:41:03.101Z,72.38
2023-11-07T02:46:05.263Z,71.83
2023-11-07T02:51:07.002Z,71.71
2023-11-07T02:56:09.044Z,71.76
2023-11-07T03:01:10.969Z,71.99
2023-11-07T03:06:12.735Z,72.24
2023-11-07T03:11:16.013Z,72.65
2023-11-07T03:16:18.152Z,73.23
2023-11-07T03:21:23.756Z,73.35
2023-11-07T03:26:25.923Z,73.77
2023-11-07T03:31:27.687Z,73.89
2023-11-07T03:36:29.799Z,74.48
2023-11-07T03:41:31.847Z,75.18
2023-11-07T03:46:33.532Z,75.28
2023-11-07T03:51:35.210Z,75.77
2023-11-07T03:56:37.202Z,76.22
2023-11-07T04:01:39.065Z,76.12
2023-11-07T04:06:40.728Z,76.21
2023-11-07T04:11:43.384Z,75.91
2023-11-07T04:16:45.977Z,76.06
2023-11-07T04:21:47.486Z,75.74
2023-11-07T04:26:55.093Z,75.79
2023-11-07T04:31:56.888Z,75.78
2023-11-07T04:36:59.907Z,75.34
2023-11-07T04:42:02.948Z,75.39
2023-11-07T04:47:06.986Z,74.73
2023-11-07T04:52:08.771Z,75.34
2023-11-07T04:57:11.212Z,76.34
2023-11-07T05:02:13.004Z,77.02
2023-11-07T05:07:15.155Z,77.78
2023-11-07T05:12:16.822Z,77.83
2023-11-07T05:17:18.892Z,78.12
2023-11-07T05:22:21.217Z,78.21
2023-11-07T05:27:22.846Z,78.75
2023-11-07T05:32:24.464Z,78.75
2023-11-07T05:37:26.187Z,78.81
2023-11-07T05:42:27.929Z,78.57
2023-11-07T05:47:29.984Z,78.63
2023-11-07T05:52:33.319Z,79.23
2023-11-07T05:57:36.907Z,79.27
2023-11-07T06:02:39.504Z,79.52
2023-11-07T06:07:41.327Z,79.43
2023-11-07T06:12:43.053Z,79.14
2023-11-07T06:17:44.803Z,78.89
2023-11-07T06:22:46.516Z,79.44
2023-11-07T06:27:49.132Z,78.45
2023-11-07T06:32:51.676Z,78.84
2023-11-07T06:37:53.385Z,79.09
2023-11-07T06:42:55.718Z,79.04
2023-11-07T06:47:57.565Z,79.42
2023-11-07T06:53:00.460Z,80.23
2023-11-07T06:58:02.108Z,80.76
2023-11-07T07:03:03.901Z,80.86
2023-11-07T07:08:09.249Z,81.08
2023-11-07T07:13:11.038Z,81.14
2023-11-07T07:18:19.411Z,81.69
2023-11-07T07:23:25.809Z,81.96
2023-11-07T07:28:28.101Z,82.81
2023-11-07T07:33:30.194Z,83.21
2023-11-07T07:38:32.929Z,83.38
2023-11-07T07:43:34.598Z,83.93
2023-11-07T07:48:36.725Z,83.55
2023-11-07T07:53:39.167Z,83.78
2023-11-07T07:58:42.454Z,83.87
2023-11-07T08:03:44.803Z,83.31
2023-11-07T08:08:47.058Z,83.20
2023-11-07T08:13:49.026Z,82.96
2023-11-07T08:18:50.734Z,83.10
2023-11-07T08:23:52.598Z,83.65
2023-11-07T08:28:54.237Z,83.73
2023-11-07T08:33:57.660Z,83.82
2023-11-07T08:38:59.468Z,83.54
2023-11-07T08:44:01.117Z,83.22
2023-11-07T08:49:02.962Z,82.69
2023-11-07T08:54:04.701Z,82.40
2023-11-07T08:59:08.750Z,82.31
2023-11-07T09:04:10.882Z,81.42
2023-11-07T09:09:16.564Z,80.34
2023-11-07T09:14:20.065Z,79.04
2023-11-07T09:19:21.929Z,77.38
2023-11-07T09:24:24.079Z,76.04
2023-11-07T09:29:25.839Z,74.78
2023-11-07T09:34:27.647Z,73.44
2023-11-07T09:39:29.386Z,72.63
2023-11-07T09:44:31.518Z,71.88
2023-11-07T09:49:34.059Z,71.06
2023-11-07T09:54:38.181Z,72.11
2023-11-07T09:59:45.704Z,70.13
2023-11-07T10:04:49.728Z,69.39
2023-11-07T10:09:51.501Z,68.67
2023-11-07T10:14:53.665Z,68.37
2023-11-07T10:20:12.411Z,67.60
2023-11-07T10:25:27.509Z,66.40
2023-11-07T10:30:36.786Z,67.02
2023-11-07T10:35:55.809Z,66.48
2023-11-07T10:40:57.994Z,66.22
2023-11-07T10:46:06.306Z,65.67
2023-11-07T10:51:09.910Z,64.92
2023-11-07T10:56:11.684Z,65.21
2023-11-07T11:01:14.521Z,64.15
2023-11-07T11:06:17.622Z,63.63
2023-11-07T11:11:20.523Z,63.77
2023-11-07T11:16:22.505Z,63.01
2023-11-07T11:21:39.393Z,63.49
2023-11-07T11:26:48.424Z,62.83
2023-11-07T11:31:50.135Z,62.66
2023-11-07T11:36:58.069Z,61.75
2023-11-07T11:42:01.710Z,61.74
2023-11-07T11:47:04.641Z,62.12
2023-11-07T11:52:26.762Z,61.87
2023-11-07T11:57:28.734Z,62.28
2023-11-07T12:02:38.342Z,62.62
2023-11-07T12:07:40.854Z,62.30
2023-11-07T12:12:42.914Z,62.24
2023-11-07T12:17:44.934Z,62.13
2023-11-07T12:22:47.808Z,62.70
2023-11-07T12:28:07.040Z,63.27
2023-11-07T12:33:11.005Z,63.09
2023-11-07T12:38:14.754Z,62.79
2023-11-07T12:43:16.600Z,61.94
2023-11-07T12:48:25.537Z,62.48
2023-11-07T12:53:27.611Z,62.53
2023-11-07T12:58:30.744Z,62.26
2023-11-07T13:03:33.860Z,62.44
2023-11-07T13:08:38.394Z,62.83
2023-11-07T13:13:41.015Z,63.47
2023-11-07T13:18:50.138Z,63.48
2023-11-07T13:23:52.961Z,65.94
2023-11-07T13:28:56.243Z,66.66
2023-11-07T13:33:58.223Z,65.91
2023-11-07T13:39:00.075Z,64.41
2023-11-07T13:44:03.313Z,64.36
2023-11-07T13:49:05.489Z,64.59
2023-11-07T13:54:09.454Z,64.75
2023-11-07T13:59:13.878Z,64.61
2023-11-07T14:04:15.959Z,63.64
2023-11-07T14:09:18.149Z,63.45
2023-11-07T14:14:21.201Z,62.77
2023-11-07T14:19:23.402Z,62.72
2023-11-07T14:24:27.107Z,62.07
2023-11-07T14:29:45.481Z,62.22
2023-11-07T14:34:52.530Z,60.14
2023-11-07T14:39:55.358Z,60.12
2023-11-07T14:44:57.156Z,59.41
2023-11-07T14:49:59.901Z,59.45
2023-11-07T14:55:01.895Z,57.89
2023-11-07T15:00:06.045Z,58.59
2023-11-07T15:05:10.026Z,58.74
2023-11-07T15:10:14.451Z,59.25
2023-11-07T15:15:16.623Z,59.58
2023-11-07T15:20:18.630Z,59.34
2023-11-07T15:25:20.669Z,58.60
2023-11-07T15:30:22.393Z,59.02
2023-11-07T15:35:25.431Z,59.45
2023-11-07T15:40:27.135Z,62.51
2023-11-07T15:45:32.239Z,64.82
2023-11-07T15:50:35.731Z,66.13
2023-11-07T15:55:38.488Z,67.21
2023-11-07T16:00:40.597Z,67.60
2023-11-07T16:05:42.989Z,67.95
2023-11-07T16:10:46.244Z,67.70
2023-11-07T16:15:47.860Z,67.50
2023-11-07T16:20:52.677Z,67.51
2023-11-07T16:25:54.428Z,67.38
2023-11-07T16:30:57.736Z,67.56
2023-11-07T16:35:59.436Z,67.76
2023-11-07T16:41:01.862Z,67.70
2023-11-07T16:46:03.473Z,68.07
2023-11-07T16:51:05.300Z,68.52
2023-11-07T16:56:07.841Z,68.72
2023-11-07T17:01:09.672Z,68.98
2023-11-07T17:06:11.507Z,69.42
2023-11-07T17:11:14.673Z,70.08
2023-11-07T17:16:17.250Z,72.05
2023-11-07T17:21:19.504Z,72.99
2023-11-07T17:26:21.500Z,74.32
2023-11-07T17:31:23.301Z,75.51
2023-11-07T17:36:25.034Z,75.78
2023-11-07T17:41:27.032Z,75.79
2023-11-07T17:46:29.168Z,76.19
2023-11-07T17:51:31.239Z,78.02
2023-11-07T17:56:34.129Z,78.69
2023-11-07T18:01:36.531Z,79.42
2023-11-07T18:06:41.215Z,79.92
2023-11-07T18:11:46.166Z,80.82
2023-11-07T18:16:47.870Z,81.81
2023-11-07T18:21:49.886Z,82.52
2023-11-07T18:26:52.750Z,82.52
2023-11-07T18:31:54.887Z,82.54
2023-11-07T18:37:00.655Z,82.43
2023-11-07T18:42:03.075Z,82.21
2023-11-07T18:47:04.985Z,81.61
2023-11-07T18:52:07.155Z,81.45
2023-11-07T18:57:13.860Z,81.24
2023-11-07T19:02:16.395Z,81.14
2023-11-07T19:07:18.254Z,81.02
2023-11-07T19:12:20.090Z,81.11
2023-11-07T19:17:23.488Z,80.85
2023-11-07T19:22:25.316Z,80.88
2023-11-07T19:27:27.797Z,80.92
2023-11-07T19:32:29.807Z,80.71
2023-11-07T19:37:31.507Z,80.69
2023-11-07T19:42:35.297Z,80.53
2023-11-07T19:47:37.002Z,80.42
2023-11-07T19:52:39.018Z,80.25
2023-11-07T19:57:43.660Z,79.76
2023-11-07T20:02:45.831Z,79.66
2023-11-07T20:07:55.497Z,79.49
2023-11-07T20:12:59.027Z,79.05
2023-11-07T20:18:01.042Z,78.71
2023-11-07T20:23:02.982Z,78.98
2023-11-07T20:28:04.899Z,79.09
2023-11-07T20:33:07.166Z,78.89
2023-11-07T20:38:09.150Z,78.87
2023-11-07T20:43:10.853Z,78.85
2023-11-07T20:48:12.828Z,78.86
2023-11-07T20:53:14.565Z,78.96
2023-11-07T20:58:16.545Z,78.51
2023-11-07T21:03:18.196Z,78.88
2023-11-07T21:08:20.029Z,78.76
2023-11-07T21:13:21.777Z,79.01
2023-11-07T21:18:24.694Z,79.49
2023-11-07T21:23:26.429Z,79.58
2023-11-07T21:28:28.237Z,79.28
2023-11-07T21:33:30.149Z,79.21
2023-11-07T21:38:32.765Z,79.64
2023-11-07T21:43:34.488Z,79.76
2023-11-07T21:48:36.273Z,79.76
2023-11-07T21:53:37.943Z,79.81
2023-11-07T21:58:42.944Z,79.73
2023-11-07T22:03:47.128Z,79.47
2023-11-07T22:08:48.838Z,79.72
2023-11-07T22:13:50.615Z,79.63
2023-11-07T22:18:52.823Z,79.68
2023-11-07T22:23:55.165Z,79.40
2023-11-07T22:28:58.048Z,79.21
2023-11-07T22:34:00.009Z,79.74
2023-11-07T22:39:02.042Z,80.09
2023-11-07T22:44:03.842Z,79.71
2023-11-07T22:49:05.620Z,79.64
2023-11-07T22:54:07.447Z,79.48
2023-11-07T22:59:09.084Z,79.53
2023-11-07T23:04:10.845Z,79.69
2023-11-07T23:09:12.890Z,79.89
2023-11-07T23:14:14.804Z,80.37
2023-11-07T23:19:16.726Z,80.54
2023-11-07T23:24:18.529Z,80.22
2023-11-07T23:29:21.508Z,80.14
2023-11-07T23:34:23.208Z,79.56
2023-11-07T23:39:25.572Z,78.98
2023-11-07T23:44:28.087Z,78.47
2023-11-07T23:49:29.883Z,77.93
2023-11-07T23:54:34.974Z,77.90
2023-11-07T23:59:36.901Z,77.50
